sensor_id;sensor_type;location;lat;lon;timestamp;temperature;humidity
7574;DHT22;3828;48.922;9.116;2022-08-18T00:01:20;20.70;99.90
7574;DHT22;3828;48.922;9.116;2022-08-18T00:03:49;21.70;99.90
7574;DHT22;3828;48.922;9.116;2022-08-18T00:06:16;21.30;99.90
7574;DHT22;3828;48.922;9.116;2022-08-18T00:08:43;20.60;99.90
7574;DHT22;3828;48.922;9.116;2022-08-18T00:11:10;20.60;99.90
7574;DHT22;3828;48.922;9.116;2022-08-18T00:13:38;17.10;99.90
7574;DHT22;3828;48.922;9.116;2022-08-18T00:16:05;20.40;99.90
7574;DHT22;3828;48.922;9.116;2022-08-18T00:18:32;20.30;99.90
7574;DHT22;3828;48.922;9.116;2022-08-18T00:20:59;20.30;99.90
7574;DHT22;3828;48.922;9.116;2022-08-18T00:23:26;22.40;99.90
7574;DHT22;3828;48.922;9.116;2022-08-18T00:25:57;20.10;99.90
7574;DHT22;3828;48.922;9.116;2022-08-18T00:28:24;20.00;99.90
7574;DHT22;3828;48.922;9.116;2022-08-18T00:30:53;19.90;99.90
7574;DHT22;3828;48.922;9.116;2022-08-18T00:33:19;19.90;99.90
7574;DHT22;3828;48.922;9.116;2022-08-18T00:35:46;19.80;99.90
7574;DHT22;3828;48.922;9.116;2022-08-18T00:38:13;19.80;99.90
7574;DHT22;3828;48.922;9.116;2022-08-18T00:40:42;19.70;99.90
7574;DHT22;3828;48.922;9.116;2022-08-18T00:43:14;22.80;99.90
7574;DHT22;3828;48.922;9.116;2022-08-18T00:45:42;19.60;99.90
7574;DHT22;3828;48.922;9.116;2022-08-18T00:48:11;19.60;99.90
7574;DHT22;3828;48.922;9.116;2022-08-18T00:50:42;19.60;99.90
7574;DHT22;3828;48.922;9.116;2022-08-18T00:53:14;22.00;99.90
7574;DHT22;3828;48.922;9.116;2022-08-18T00:55:44;21.80;99.90
7574;DHT22;3828;48.922;9.116;2022-08-18T00:58:15;19.50;99.90
7574;DHT22;3828;48.922;9.116;2022-08-18T01:00:48;19.70;99.90
7574;DHT22;3828;48.922;9.116;2022-08-18T01:03:18;19.40;99.90
7574;DHT22;3828;48.922;9.116;2022-08-18T01:05:49;19.40;99.90
7574;DHT22;3828;48.922;9.116;2022-08-18T01:08:19;20.70;99.90
7574;DHT22;3828;48.922;9.116;2022-08-18T01:10:46;19.30;99.90
7574;DHT22;3828;48.922;9.116;2022-08-18T01:13:13;19.30;99.90
7574;DHT22;3828;48.922;9.116;2022-08-18T01:15:40;21.20;99.90
7574;DHT22;3828;48.922;9.116;2022-08-18T01:18:10;21.30;99.90
7574;DHT22;3828;48.922;9.116;2022-08-18T01:21:02;19.20;99.90
7574;DHT22;3828;48.922;9.116;2022-08-18T01:23:49;19.20;99.90
7574;DHT22;3828;48.922;9.116;2022-08-18T01:26:19;19.20;99.90
7574;DHT22;3828;48.922;9.116;2022-08-18T01:28:47;19.20;99.90
7574;DHT22;3828;48.922;9.116;2022-08-18T01:31:30;22.10;99.90
7574;DHT22;3828;48.922;9.116;2022-08-18T01:33:59;19.10;99.90
7574;DHT22;3828;48.922;9.116;2022-08-18T01:36:27;19.10;99.90
7574;DHT22;3828;48.922;9.116;2022-08-18T01:38:56;20.40;99.90
7574;DHT22;3828;48.922;9.116;2022-08-18T01:41:23;20.30;99.90
7574;DHT22;3828;48.922;9.116;2022-08-18T01:43:50;19.20;99.90
7574;DHT22;3828;48.922;9.116;2022-08-18T01:46:18;20.70;99.90
7574;DHT22;3828;48.922;9.116;2022-08-18T01:48:48;19.10;99.90
7574;DHT22;3828;48.922;9.116;2022-08-18T01:51:16;21.10;99.90
7574;DHT22;3828;48.922;9.116;2022-08-18T01:53:44;19.00;99.90
7574;DHT22;3828;48.922;9.116;2022-08-18T01:56:12;19.00;99.90
7574;DHT22;3828;48.922;9.116;2022-08-18T01:58:42;21.40;99.90
7574;DHT22;3828;48.922;9.116;2022-08-18T02:01:10;18.90;99.90
7574;DHT22;3828;48.922;9.116;2022-08-18T02:03:40;20.80;99.90
7574;DHT22;3828;48.922;9.116;2022-08-18T02:06:11;22.20;99.90
7574;DHT22;3828;48.922;9.116;2022-08-18T02:08:39;20.60;99.90
7574;DHT22;3828;48.922;9.116;2022-08-18T02:11:06;18.70;99.90
7574;DHT22;3828;48.922;9.116;2022-08-18T02:13:34;21.20;99.90
7574;DHT22;3828;48.922;9.116;2022-08-18T02:16:01;19.40;99.90
7574;DHT22;3828;48.922;9.116;2022-08-18T02:18:33;18.80;99.90
7574;DHT22;3828;48.922;9.116;2022-08-18T02:21:06;18.90;99.90
7574;DHT22;3828;48.922;9.116;2022-08-18T02:23:34;18.80;99.90
7574;DHT22;3828;48.922;9.116;2022-08-18T02:26:03;20.70;99.90
7574;DHT22;3828;48.922;9.116;2022-08-18T02:28:30;18.80;99.90
7574;DHT22;3828;48.922;9.116;2022-08-18T02:31:03;18.80;99.90
7574;DHT22;3828;48.922;9.116;2022-08-18T02:33:30;21.40;99.90
7574;DHT22;3828;48.922;9.116;2022-08-18T02:35:57;20.60;99.90
7574;DHT22;3828;48.922;9.116;2022-08-18T02:38:23;18.80;99.90
7574;DHT22;3828;48.922;9.116;2022-08-18T02:40:54;20.00;99.90
7574;DHT22;3828;48.922;9.116;2022-08-18T02:43:21;18.90;99.90
7574;DHT22;3828;48.922;9.116;2022-08-18T02:45:48;20.30;99.90
7574;DHT22;3828;48.922;9.116;2022-08-18T02:48:16;19.00;99.90
7574;DHT22;3828;48.922;9.116;2022-08-18T02:50:44;19.00;99.90
7574;DHT22;3828;48.922;9.116;2022-08-18T02:53:12;19.00;99.90
7574;DHT22;3828;48.922;9.116;2022-08-18T02:55:43;19.10;99.90
7574;DHT22;3828;48.922;9.116;2022-08-18T02:58:09;18.90;99.90
7574;DHT22;3828;48.922;9.116;2022-08-18T03:00:37;20.20;99.90
7574;DHT22;3828;48.922;9.116;2022-08-18T03:03:04;20.60;99.90
7574;DHT22;3828;48.922;9.116;2022-08-18T03:05:33;19.00;99.90
7574;DHT22;3828;48.922;9.116;2022-08-18T03:08:00;19.00;99.90
7574;DHT22;3828;48.922;9.116;2022-08-18T03:10:27;21.10;99.90
7574;DHT22;3828;48.922;9.116;2022-08-18T03:12:53;18.90;99.90
7574;DHT22;3828;48.922;9.116;2022-08-18T03:15:20;21.60;99.90
7574;DHT22;3828;48.922;9.116;2022-08-18T03:17:48;18.80;99.90
7574;DHT22;3828;48.922;9.116;2022-08-18T03:20:16;16.90;99.90
7574;DHT22;3828;48.922;9.116;2022-08-18T03:22:44;18.80;99.90
7574;DHT22;3828;48.922;9.116;2022-08-18T03:25:11;18.80;99.90
7574;DHT22;3828;48.922;9.116;2022-08-18T03:27:40;18.00;99.90
7574;DHT22;3828;48.922;9.116;2022-08-18T03:30:07;22.70;99.90
7574;DHT22;3828;48.922;9.116;2022-08-18T03:32:35;18.70;99.90
7574;DHT22;3828;48.922;9.116;2022-08-18T03:35:03;21.30;99.90
7574;DHT22;3828;48.922;9.116;2022-08-18T03:37:30;18.80;99.90
7574;DHT22;3828;48.922;9.116;2022-08-18T03:39:59;18.80;99.90
7574;DHT22;3828;48.922;9.116;2022-08-18T03:42:26;20.50;99.90
7574;DHT22;3828;48.922;9.116;2022-08-18T03:44:52;19.70;99.90
7574;DHT22;3828;48.922;9.116;2022-08-18T03:47:19;19.00;99.90
7574;DHT22;3828;48.922;9.116;2022-08-18T03:49:46;20.50;99.90
7574;DHT22;3828;48.922;9.116;2022-08-18T03:52:13;20.70;99.90
7574;DHT22;3828;48.922;9.116;2022-08-18T03:54:40;22.10;99.90
7574;DHT22;3828;48.922;9.116;2022-08-18T03:57:09;18.80;99.90
7574;DHT22;3828;48.922;9.116;2022-08-18T03:59:37;18.90;99.90
7574;DHT22;3828;48.922;9.116;2022-08-18T04:02:09;20.30;99.90
7574;DHT22;3828;48.922;9.116;2022-08-18T04:04:36;19.70;99.90
7574;DHT22;3828;48.922;9.116;2022-08-18T04:07:07;18.70;99.90
7574;DHT22;3828;48.922;9.116;2022-08-18T04:09:35;20.90;99.90
7574;DHT22;3828;48.922;9.116;2022-08-18T04:12:05;18.70;99.90
7574;DHT22;3828;48.922;9.116;2022-08-18T04:14:36;18.70;99.90
7574;DHT22;3828;48.922;9.116;2022-08-18T04:17:04;18.70;99.90
7574;DHT22;3828;48.922;9.116;2022-08-18T04:19:31;18.70;99.90
7574;DHT22;3828;48.922;9.116;2022-08-18T04:22:00;21.50;99.90
7574;DHT22;3828;48.922;9.116;2022-08-18T04:24:29;18.70;99.90
7574;DHT22;3828;48.922;9.116;2022-08-18T04:26:57;18.70;99.90
7574;DHT22;3828;48.922;9.116;2022-08-18T04:29:25;19.00;99.90
7574;DHT22;3828;48.922;9.116;2022-08-18T04:31:54;18.60;99.90
7574;DHT22;3828;48.922;9.116;2022-08-18T04:34:21;21.20;99.90
7574;DHT22;3828;48.922;9.116;2022-08-18T04:36:49;18.60;99.90
7574;DHT22;3828;48.922;9.116;2022-08-18T04:39:19;19.90;99.90
7574;DHT22;3828;48.922;9.116;2022-08-18T04:41:46;18.60;99.90
7574;DHT22;3828;48.922;9.116;2022-08-18T04:44:13;18.90;99.90
7574;DHT22;3828;48.922;9.116;2022-08-18T04:46:44;18.60;99.90
7574;DHT22;3828;48.922;9.116;2022-08-18T04:49:14;18.70;99.90
7574;DHT22;3828;48.922;9.116;2022-08-18T04:51:43;18.60;99.90
7574;DHT22;3828;48.922;9.116;2022-08-18T04:54:30;18.70;99.90
7574;DHT22;3828;48.922;9.116;2022-08-18T04:56:56;19.80;99.90
7574;DHT22;3828;48.922;9.116;2022-08-18T04:59:23;18.70;99.90
7574;DHT22;3828;48.922;9.116;2022-08-18T05:01:50;18.70;99.90
7574;DHT22;3828;48.922;9.116;2022-08-18T05:04:18;18.70;99.90
7574;DHT22;3828;48.922;9.116;2022-08-18T05:06:45;18.80;99.90
7574;DHT22;3828;48.922;9.116;2022-08-18T05:09:13;19.00;99.90
7574;DHT22;3828;48.922;9.116;2022-08-18T05:11:40;18.90;99.90
7574;DHT22;3828;48.922;9.116;2022-08-18T05:14:09;19.00;99.90
7574;DHT22;3828;48.922;9.116;2022-08-18T05:16:36;19.40;99.90
7574;DHT22;3828;48.922;9.116;2022-08-18T05:19:05;18.90;99.90
7574;DHT22;3828;48.922;9.116;2022-08-18T05:21:34;19.00;99.90
7574;DHT22;3828;48.922;9.116;2022-08-18T05:24:03;19.00;99.90
7574;DHT22;3828;48.922;9.116;2022-08-18T05:26:30;20.60;99.90
7574;DHT22;3828;48.922;9.116;2022-08-18T05:28:57;21.70;99.90
7574;DHT22;3828;48.922;9.116;2022-08-18T05:31:26;21.60;99.90
7574;DHT22;3828;48.922;9.116;2022-08-18T05:33:54;19.30;99.90
7574;DHT22;3828;48.922;9.116;2022-08-18T05:36:36;20.40;99.90
7574;DHT22;3828;48.922;9.116;2022-08-18T05:39:17;19.30;99.90
7574;DHT22;3828;48.922;9.116;2022-08-18T05:41:50;21.00;99.90
7574;DHT22;3828;48.922;9.116;2022-08-18T05:44:21;19.50;99.90
7574;DHT22;3828;48.922;9.116;2022-08-18T05:46:52;19.60;99.90
7574;DHT22;3828;48.922;9.116;2022-08-18T05:49:19;19.80;99.90
7574;DHT22;3828;48.922;9.116;2022-08-18T05:51:51;19.90;99.90
7574;DHT22;3828;48.922;9.116;2022-08-18T05:54:20;20.10;99.90
7574;DHT22;3828;48.922;9.116;2022-08-18T05:57:08;20.60;99.90
7574;DHT22;3828;48.922;9.116;2022-08-18T05:59:38;20.30;99.90
7574;DHT22;3828;48.922;9.116;2022-08-18T06:02:09;20.40;99.90
7574;DHT22;3828;48.922;9.116;2022-08-18T06:04:42;20.30;99.90
7574;DHT22;3828;48.922;9.116;2022-08-18T06:07:14;20.40;99.90
7574;DHT22;3828;48.922;9.116;2022-08-18T06:09:47;20.70;99.90
7574;DHT22;3828;48.922;9.116;2022-08-18T06:12:26;20.30;99.90
7574;DHT22;3828;48.922;9.116;2022-08-18T06:15:00;20.30;99.90
7574;DHT22;3828;48.922;9.116;2022-08-18T06:17:54;20.90;99.90
7574;DHT22;3828;48.922;9.116;2022-08-18T06:20:28;20.30;99.90
7574;DHT22;3828;48.922;9.116;2022-08-18T06:23:14;20.20;99.90
7574;DHT22;3828;48.922;9.116;2022-08-18T06:25:55;20.30;99.90
7574;DHT22;3828;48.922;9.116;2022-08-18T06:28:35;20.40;99.90
7574;DHT22;3828;48.922;9.116;2022-08-18T06:31:11;21.00;99.90
7574;DHT22;3828;48.922;9.116;2022-08-18T06:33:48;21.90;99.90
7574;DHT22;3828;48.922;9.116;2022-08-18T06:36:24;23.50;99.90
7574;DHT22;3828;48.922;9.116;2022-08-18T06:39:02;20.60;99.90
7574;DHT22;3828;48.922;9.116;2022-08-18T06:41:37;21.60;99.90
7574;DHT22;3828;48.922;9.116;2022-08-18T06:44:06;23.50;99.90
7574;DHT22;3828;48.922;9.116;2022-08-18T06:46:40;20.80;99.90
7574;DHT22;3828;48.922;9.116;2022-08-18T06:49:10;23.20;99.90
7574;DHT22;3828;48.922;9.116;2022-08-18T06:51:37;24.30;99.90
7574;DHT22;3828;48.922;9.116;2022-08-18T06:54:07;24.30;99.90
7574;DHT22;3828;48.922;9.116;2022-08-18T06:56:52;21.30;99.90
7574;DHT22;3828;48.922;9.116;2022-08-18T06:59:23;21.50;99.90
7574;DHT22;3828;48.922;9.116;2022-08-18T07:01:52;21.60;99.90
7574;DHT22;3828;48.922;9.116;2022-08-18T07:04:32;21.70;99.90
7574;DHT22;3828;48.922;9.116;2022-08-18T07:07:11;22.90;99.90
7574;DHT22;3828;48.922;9.116;2022-08-18T07:09:40;21.70;99.90
7574;DHT22;3828;48.922;9.116;2022-08-18T07:12:09;21.80;99.90
7574;DHT22;3828;48.922;9.116;2022-08-18T07:14:44;21.90;99.90
7574;DHT22;3828;48.922;9.116;2022-08-18T07:17:13;22.00;99.90
7574;DHT22;3828;48.922;9.116;2022-08-18T07:19:54;25.40;99.90
7574;DHT22;3828;48.922;9.116;2022-08-18T07:22:21;22.00;99.90
7574;DHT22;3828;48.922;9.116;2022-08-18T07:24:50;23.10;99.90
7574;DHT22;3828;48.922;9.116;2022-08-18T07:27:20;23.00;99.90
7574;DHT22;3828;48.922;9.116;2022-08-18T07:30:00;22.00;99.90
7574;DHT22;3828;48.922;9.116;2022-08-18T07:32:31;21.80;99.90
7574;DHT22;3828;48.922;9.116;2022-08-18T07:35:02;21.70;99.90
7574;DHT22;3828;48.922;9.116;2022-08-18T07:37:35;21.70;99.90
7574;DHT22;3828;48.922;9.116;2022-08-18T07:40:19;21.70;99.90
7574;DHT22;3828;48.922;9.116;2022-08-18T07:42:51;24.90;99.90
7574;DHT22;3828;48.922;9.116;2022-08-18T07:45:23;24.60;99.90
7574;DHT22;3828;48.922;9.116;2022-08-18T07:47:55;24.80;99.90
7574;DHT22;3828;48.922;9.116;2022-08-18T07:50:24;24.30;99.90
7574;DHT22;3828;48.922;9.116;2022-08-18T07:53:07;21.80;99.90
7574;DHT22;3828;48.922;9.116;2022-08-18T07:55:41;21.70;99.90
7574;DHT22;3828;48.922;9.116;2022-08-18T07:58:17;24.60;99.90
7574;DHT22;3828;48.922;9.116;2022-08-18T08:00:51;21.40;99.90
7574;DHT22;3828;48.922;9.116;2022-08-18T08:03:28;22.00;99.90
7574;DHT22;3828;48.922;9.116;2022-08-18T08:06:06;21.30;99.90
7574;DHT22;3828;48.922;9.116;2022-08-18T08:08:39;21.20;99.90
7574;DHT22;3828;48.922;9.116;2022-08-18T08:11:17;21.10;99.90
7574;DHT22;3828;48.922;9.116;2022-08-18T08:13:55;21.40;99.90
7574;DHT22;3828;48.922;9.116;2022-08-18T08:16:32;21.10;99.90
7574;DHT22;3828;48.922;9.116;2022-08-18T08:19:07;22.80;99.90
7574;DHT22;3828;48.922;9.116;2022-08-18T08:21:39;21.20;99.90
7574;DHT22;3828;48.922;9.116;2022-08-18T08:24:12;21.10;99.90
7574;DHT22;3828;48.922;9.116;2022-08-18T08:26:50;21.10;99.90
7574;DHT22;3828;48.922;9.116;2022-08-18T08:29:26;21.50;99.90
7574;DHT22;3828;48.922;9.116;2022-08-18T08:32:00;21.10;99.90
7574;DHT22;3828;48.922;9.116;2022-08-18T08:34:34;23.00;99.90
7574;DHT22;3828;48.922;9.116;2022-08-18T08:37:09;21.50;99.90
7574;DHT22;3828;48.922;9.116;2022-08-18T08:39:43;21.00;99.90
7574;DHT22;3828;48.922;9.116;2022-08-18T08:42:15;21.10;99.90
7574;DHT22;3828;48.922;9.116;2022-08-18T08:44:47;21.10;99.90
7574;DHT22;3828;48.922;9.116;2022-08-18T08:47:20;21.20;99.90
7574;DHT22;3828;48.922;9.116;2022-08-18T08:49:52;21.90;99.90
7574;DHT22;3828;48.922;9.116;2022-08-18T08:52:23;23.00;99.90
7574;DHT22;3828;48.922;9.116;2022-08-18T08:54:58;21.60;99.90
7574;DHT22;3828;48.922;9.116;2022-08-18T08:57:32;23.00;99.90
7574;DHT22;3828;48.922;9.116;2022-08-18T09:00:04;23.40;99.90
7574;DHT22;3828;48.922;9.116;2022-08-18T09:02:48;22.40;99.90
7574;DHT22;3828;48.922;9.116;2022-08-18T09:05:20;22.60;99.90
7574;DHT22;3828;48.922;9.116;2022-08-18T09:08:15;23.00;99.90
7574;DHT22;3828;48.922;9.116;2022-08-18T09:20:06;23.30;99.90
7574;DHT22;3828;48.922;9.116;2022-08-18T09:22:43;24.10;99.90
7574;DHT22;3828;48.922;9.116;2022-08-18T09:25:31;26.60;99.90
7574;DHT22;3828;48.922;9.116;2022-08-18T09:28:07;25.60;99.90
7574;DHT22;3828;48.922;9.116;2022-08-18T09:30:40;27.40;99.90
7574;DHT22;3828;48.922;9.116;2022-08-18T09:33:18;27.10;99.90
7574;DHT22;3828;48.922;9.116;2022-08-18T09:36:13;25.40;99.90
7574;DHT22;3828;48.922;9.116;2022-08-18T09:38:49;25.00;99.90
7574;DHT22;3828;48.922;9.116;2022-08-18T09:41:39;25.50;99.90
7574;DHT22;3828;48.922;9.116;2022-08-18T09:44:13;27.80;99.90
7574;DHT22;3828;48.922;9.116;2022-08-18T09:46:57;26.10;99.90
7574;DHT22;3828;48.922;9.116;2022-08-18T09:49:43;26.10;99.90
7574;DHT22;3828;48.922;9.116;2022-08-18T09:58:14;26.60;99.90
7574;DHT22;3828;48.922;9.116;2022-08-18T10:00:43;27.90;99.90
7574;DHT22;3828;48.922;9.116;2022-08-18T10:03:23;27.30;99.90
7574;DHT22;3828;48.922;9.116;2022-08-18T10:06:11;27.20;99.90
7574;DHT22;3828;48.922;9.116;2022-08-18T10:12:14;27.50;99.90
7574;DHT22;3828;48.922;9.116;2022-08-18T10:15:07;28.20;99.90
7574;DHT22;3828;48.922;9.116;2022-08-18T10:17:49;28.60;99.90
7574;DHT22;3828;48.922;9.116;2022-08-18T10:20:32;28.00;99.90
7574;DHT22;3828;48.922;9.116;2022-08-18T10:23:05;27.80;99.90
7574;DHT22;3828;48.922;9.116;2022-08-18T10:25:38;28.00;99.90
7574;DHT22;3828;48.922;9.116;2022-08-18T10:28:07;28.80;99.90
7574;DHT22;3828;48.922;9.116;2022-08-18T10:30:45;29.40;99.90
7574;DHT22;3828;48.922;9.116;2022-08-18T10:33:12;30.00;99.90
7574;DHT22;3828;48.922;9.116;2022-08-18T10:36:02;30.10;99.90
7574;DHT22;3828;48.922;9.116;2022-08-18T10:38:43;30.00;99.90
7574;DHT22;3828;48.922;9.116;2022-08-18T10:41:20;29.70;99.90
7574;DHT22;3828;48.922;9.116;2022-08-18T10:43:50;29.60;99.90
7574;DHT22;3828;48.922;9.116;2022-08-18T10:46:20;28.90;99.90
7574;DHT22;3828;48.922;9.116;2022-08-18T10:49:02;28.70;99.90
7574;DHT22;3828;48.922;9.116;2022-08-18T10:51:47;28.60;99.90
7574;DHT22;3828;48.922;9.116;2022-08-18T10:54:23;31.60;99.90
7574;DHT22;3828;48.922;9.116;2022-08-18T10:57:02;30.60;99.90
7574;DHT22;3828;48.922;9.116;2022-08-18T10:59:37;30.10;99.90
7574;DHT22;3828;48.922;9.116;2022-08-18T11:02:18;29.70;99.90
7574;DHT22;3828;48.922;9.116;2022-08-18T11:04:51;30.00;99.90
7574;DHT22;3828;48.922;9.116;2022-08-18T11:07:21;29.90;99.90
7574;DHT22;3828;48.922;9.116;2022-08-18T11:09:53;29.90;99.90
7574;DHT22;3828;48.922;9.116;2022-08-18T11:12:44;30.60;99.90
7574;DHT22;3828;48.922;9.116;2022-08-18T11:15:18;31.00;99.90
7574;DHT22;3828;48.922;9.116;2022-08-18T11:18:00;30.30;99.90
7574;DHT22;3828;48.922;9.116;2022-08-18T11:20:32;29.70;99.90
7574;DHT22;3828;48.922;9.116;2022-08-18T11:23:02;29.40;99.90
7574;DHT22;3828;48.922;9.116;2022-08-18T11:25:32;29.00;99.90
7574;DHT22;3828;48.922;9.116;2022-08-18T11:28:02;28.90;99.90
7574;DHT22;3828;48.922;9.116;2022-08-18T11:30:40;28.60;99.90
7574;DHT22;3828;48.922;9.116;2022-08-18T11:33:13;28.60;99.90
7574;DHT22;3828;48.922;9.116;2022-08-18T11:35:45;29.40;99.90
7574;DHT22;3828;48.922;9.116;2022-08-18T11:38:15;28.40;99.90
7574;DHT22;3828;48.922;9.116;2022-08-18T11:40:45;28.00;99.90
7574;DHT22;3828;48.922;9.116;2022-08-18T11:43:15;28.50;99.90
7574;DHT22;3828;48.922;9.116;2022-08-18T11:45:52;27.00;99.90
7574;DHT22;3828;48.922;9.116;2022-08-18T11:48:30;27.70;99.90
7574;DHT22;3828;48.922;9.116;2022-08-18T11:51:02;28.60;99.90
7574;DHT22;3828;48.922;9.116;2022-08-18T11:53:39;27.40;99.90
7574;DHT22;3828;48.922;9.116;2022-08-18T11:56:16;27.50;99.90
7574;DHT22;3828;48.922;9.116;2022-08-18T11:58:45;27.50;99.90
7574;DHT22;3828;48.922;9.116;2022-08-18T12:01:28;27.80;99.90
7574;DHT22;3828;48.922;9.116;2022-08-18T12:03:57;27.90;99.90
7574;DHT22;3828;48.922;9.116;2022-08-18T12:06:26;29.30;99.90
7574;DHT22;3828;48.922;9.116;2022-08-18T12:08:59;29.90;99.90
7574;DHT22;3828;48.922;9.116;2022-08-18T12:11:29;29.70;99.90
7574;DHT22;3828;48.922;9.116;2022-08-18T12:14:03;30.30;99.90
7574;DHT22;3828;48.922;9.116;2022-08-18T12:16:36;30.60;99.90
7574;DHT22;3828;48.922;9.116;2022-08-18T12:19:05;30.60;99.90
7574;DHT22;3828;48.922;9.116;2022-08-18T12:21:36;30.40;99.90
7574;DHT22;3828;48.922;9.116;2022-08-18T12:24:07;30.40;99.90
7574;DHT22;3828;48.922;9.116;2022-08-18T12:26:37;30.50;99.90
7574;DHT22;3828;48.922;9.116;2022-08-18T12:29:03;30.60;99.90
7574;DHT22;3828;48.922;9.116;2022-08-18T12:31:30;31.80;99.90
7574;DHT22;3828;48.922;9.116;2022-08-18T12:33:57;31.30;99.90
7574;DHT22;3828;48.922;9.116;2022-08-18T12:36:24;31.60;99.90
7574;DHT22;3828;48.922;9.116;2022-08-18T12:38:51;31.50;99.90
7574;DHT22;3828;48.922;9.116;2022-08-18T12:41:19;32.50;99.90
7574;DHT22;3828;48.922;9.116;2022-08-18T12:43:46;31.70;99.90
7574;DHT22;3828;48.922;9.116;2022-08-18T12:46:13;30.50;99.90
7574;DHT22;3828;48.922;9.116;2022-08-18T12:48:40;31.00;99.90
7574;DHT22;3828;48.922;9.116;2022-08-18T12:51:07;32.80;99.90
7574;DHT22;3828;48.922;9.116;2022-08-18T12:53:33;33.70;99.90
7574;DHT22;3828;48.922;9.116;2022-08-18T12:56:00;32.00;99.90
7574;DHT22;3828;48.922;9.116;2022-08-18T12:58:30;31.60;99.90
7574;DHT22;3828;48.922;9.116;2022-08-18T13:00:57;32.10;99.90
7574;DHT22;3828;48.922;9.116;2022-08-18T13:03:24;31.90;99.90
7574;DHT22;3828;48.922;9.116;2022-08-18T13:05:50;31.30;99.90
7574;DHT22;3828;48.922;9.116;2022-08-18T13:08:20;31.50;99.90
7574;DHT22;3828;48.922;9.116;2022-08-18T13:10:47;32.50;99.90
7574;DHT22;3828;48.922;9.116;2022-08-18T13:13:15;31.90;99.90
7574;DHT22;3828;48.922;9.116;2022-08-18T13:15:44;32.60;99.90
7574;DHT22;3828;48.922;9.116;2022-08-18T13:18:11;32.40;99.90
7574;DHT22;3828;48.922;9.116;2022-08-18T13:20:38;31.50;99.90
7574;DHT22;3828;48.922;9.116;2022-08-18T13:23:05;31.60;99.90
7574;DHT22;3828;48.922;9.116;2022-08-18T13:25:31;31.10;99.90
7574;DHT22;3828;48.922;9.116;2022-08-18T13:27:58;31.50;99.90
7574;DHT22;3828;48.922;9.116;2022-08-18T13:30:25;31.30;99.90
7574;DHT22;3828;48.922;9.116;2022-08-18T13:32:54;31.30;99.90
7574;DHT22;3828;48.922;9.116;2022-08-18T13:35:20;32.20;99.90
7574;DHT22;3828;48.922;9.116;2022-08-18T13:37:47;31.90;99.90
7574;DHT22;3828;48.922;9.116;2022-08-18T13:40:14;32.00;99.90
7574;DHT22;3828;48.922;9.116;2022-08-18T13:42:43;32.20;99.90
7574;DHT22;3828;48.922;9.116;2022-08-18T13:45:10;32.30;99.90
7574;DHT22;3828;48.922;9.116;2022-08-18T13:47:40;33.00;99.90
7574;DHT22;3828;48.922;9.116;2022-08-18T13:50:09;33.60;99.90
7574;DHT22;3828;48.922;9.116;2022-08-18T13:52:38;32.50;99.90
7574;DHT22;3828;48.922;9.116;2022-08-18T13:55:08;31.90;99.90
7574;DHT22;3828;48.922;9.116;2022-08-18T13:57:36;32.20;99.90
7574;DHT22;3828;48.922;9.116;2022-08-18T14:00:06;32.30;99.90
7574;DHT22;3828;48.922;9.116;2022-08-18T14:02:36;31.70;99.90
7574;DHT22;3828;48.922;9.116;2022-08-18T14:05:03;30.70;99.90
7574;DHT22;3828;48.922;9.116;2022-08-18T14:07:31;30.20;99.90
7574;DHT22;3828;48.922;9.116;2022-08-18T14:09:58;30.40;99.90
7574;DHT22;3828;48.922;9.116;2022-08-18T14:12:25;30.20;99.90
7574;DHT22;3828;48.922;9.116;2022-08-18T14:14:53;30.20;99.90
7574;DHT22;3828;48.922;9.116;2022-08-18T14:17:21;30.40;99.90
7574;DHT22;3828;48.922;9.116;2022-08-18T14:19:49;30.70;99.90
7574;DHT22;3828;48.922;9.116;2022-08-18T14:22:35;31.50;99.90
7574;DHT22;3828;48.922;9.116;2022-08-18T14:25:19;31.20;99.90
7574;DHT22;3828;48.922;9.116;2022-08-18T14:28:03;31.50;99.90
7574;DHT22;3828;48.922;9.116;2022-08-18T14:30:30;31.90;99.90
7574;DHT22;3828;48.922;9.116;2022-08-18T14:32:57;32.00;99.90
7574;DHT22;3828;48.922;9.116;2022-08-18T14:35:24;32.00;99.90
7574;DHT22;3828;48.922;9.116;2022-08-18T14:37:52;33.30;99.90
7574;DHT22;3828;48.922;9.116;2022-08-18T14:40:19;31.80;99.90
7574;DHT22;3828;48.922;9.116;2022-08-18T14:42:46;33.00;99.90
7574;DHT22;3828;48.922;9.116;2022-08-18T14:45:13;31.40;99.90
7574;DHT22;3828;48.922;9.116;2022-08-18T14:47:41;31.30;99.90
7574;DHT22;3828;48.922;9.116;2022-08-18T14:50:09;31.40;99.90
7574;DHT22;3828;48.922;9.116;2022-08-18T14:52:40;32.90;99.90
7574;DHT22;3828;48.922;9.116;2022-08-18T14:55:09;31.70;99.90
7574;DHT22;3828;48.922;9.116;2022-08-18T14:57:37;31.30;99.90
7574;DHT22;3828;48.922;9.116;2022-08-18T15:00:06;32.50;99.90
7574;DHT22;3828;48.922;9.116;2022-08-18T15:02:35;31.50;99.90
7574;DHT22;3828;48.922;9.116;2022-08-18T15:05:03;31.50;99.90
7574;DHT22;3828;48.922;9.116;2022-08-18T15:07:30;31.30;99.90
7574;DHT22;3828;48.922;9.116;2022-08-18T15:09:57;32.10;99.90
7574;DHT22;3828;48.922;9.116;2022-08-18T15:12:25;31.30;99.90
7574;DHT22;3828;48.922;9.116;2022-08-18T15:14:52;31.30;99.90
7574;DHT22;3828;48.922;9.116;2022-08-18T15:17:19;30.80;99.90
7574;DHT22;3828;48.922;9.116;2022-08-18T15:19:46;31.30;99.90
7574;DHT22;3828;48.922;9.116;2022-08-18T15:22:13;30.70;99.90
7574;DHT22;3828;48.922;9.116;2022-08-18T15:24:57;30.50;99.90
7574;DHT22;3828;48.922;9.116;2022-08-18T15:27:43;30.10;99.90
7574;DHT22;3828;48.922;9.116;2022-08-18T15:30:12;30.00;99.90
7574;DHT22;3828;48.922;9.116;2022-08-18T15:32:40;29.80;99.90
7574;DHT22;3828;48.922;9.116;2022-08-18T15:35:08;29.70;99.90
7574;DHT22;3828;48.922;9.116;2022-08-18T15:37:36;29.60;99.90
7574;DHT22;3828;48.922;9.116;2022-08-18T15:40:08;29.60;99.90
7574;DHT22;3828;48.922;9.116;2022-08-18T15:42:36;29.30;99.90
7574;DHT22;3828;48.922;9.116;2022-08-18T15:45:05;29.20;99.90
7574;DHT22;3828;48.922;9.116;2022-08-18T15:47:32;29.00;99.90
7574;DHT22;3828;48.922;9.116;2022-08-18T15:50:00;29.00;99.90
7574;DHT22;3828;48.922;9.116;2022-08-18T15:52:27;29.40;99.90
7574;DHT22;3828;48.922;9.116;2022-08-18T15:54:54;30.30;99.90
7574;DHT22;3828;48.922;9.116;2022-08-18T15:57:21;28.60;99.90
7574;DHT22;3828;48.922;9.116;2022-08-18T15:59:48;28.40;99.90
7574;DHT22;3828;48.922;9.116;2022-08-18T16:02:17;28.30;99.90
7574;DHT22;3828;48.922;9.116;2022-08-18T16:04:44;28.20;99.90
7574;DHT22;3828;48.922;9.116;2022-08-18T16:07:10;28.20;99.90
7574;DHT22;3828;48.922;9.116;2022-08-18T16:09:38;28.40;99.90
7574;DHT22;3828;48.922;9.116;2022-08-18T16:12:07;27.90;99.90
7574;DHT22;3828;48.922;9.116;2022-08-18T16:14:36;27.90;99.90
7574;DHT22;3828;48.922;9.116;2022-08-18T16:17:03;28.70;99.90
7574;DHT22;3828;48.922;9.116;2022-08-18T16:19:31;27.50;99.90
7574;DHT22;3828;48.922;9.116;2022-08-18T16:21:58;28.20;99.90
7574;DHT22;3828;48.922;9.116;2022-08-18T16:24:25;27.40;99.90
7574;DHT22;3828;48.922;9.116;2022-08-18T16:26:51;27.50;99.90
7574;DHT22;3828;48.922;9.116;2022-08-18T16:29:18;27.30;99.90
7574;DHT22;3828;48.922;9.116;2022-08-18T16:31:46;27.20;99.90
7574;DHT22;3828;48.922;9.116;2022-08-18T16:34:13;27.20;99.90
7574;DHT22;3828;48.922;9.116;2022-08-18T16:36:41;27.20;99.90
7574;DHT22;3828;48.922;9.116;2022-08-18T16:39:08;27.20;99.90
7574;DHT22;3828;48.922;9.116;2022-08-18T16:41:35;27.00;99.90
7574;DHT22;3828;48.922;9.116;2022-08-18T16:44:03;27.00;99.90
7574;DHT22;3828;48.922;9.116;2022-08-18T16:46:30;26.80;99.90